Time;durP1;ratioP1;P1;durP2;ratioP2;P2;SDS_P1;SDS_P2;PMS_P1;PMS_P2;Temp;Humidity;BMP_temperature;BMP_pressure;BME280_temperature;BME280_humidity;BME280_pressure;Samples;Min_cycle;Max_cycle;Signal;HPM_P1;HPM_P2
2022/03/24 00:01:18;;;;;;;24.45;12.35;;;;;;;7.67;68.26;101190.75;5089073;28;20028;-66
2022/03/24 00:03:45;;;;;;;32.97;13.30;;;;;;;7.73;67.98;101206.59;5089975;28;20039;-66
2022/03/24 00:06:11;;;;;;;22.50;11.85;;;;;;;7.68;68.45;101215.44;5094326;28;20028;-67
2022/03/24 00:08:37;;;;;;;20.27;12.45;;;;;;;7.60;69.22;101202.22;5091985;28;20035;-66
2022/03/24 00:11:02;;;;;;;26.52;13.23;;;;;;;7.54;70.11;101209.28;5088666;28;20085;-66
2022/03/24 00:13:28;;;;;;;22.98;12.55;;;;;;;7.45;69.56;101204.00;5075144;28;20475;-66
2022/03/24 00:15:53;;;;;;;26.30;14.10;;;;;;;7.36;69.33;101199.63;5077346;28;20113;-66
2022/03/24 00:18:19;;;;;;;25.77;12.32;;;;;;;7.37;69.85;101201.38;5093342;28;20024;-66
2022/03/24 00:20:44;;;;;;;25.90;13.38;;;;;;;7.34;69.73;101189.91;5095368;28;20109;-66
2022/03/24 00:23:09;;;;;;;25.10;13.60;;;;;;;7.30;70.36;101194.31;5095015;28;20037;-66
2022/03/24 00:25:35;;;;;;;28.05;13.32;;;;;;;7.32;70.19;101191.66;5090630;28;20051;-67
2022/03/24 00:28:00;;;;;;;23.85;12.93;;;;;;;7.27;71.11;101196.97;5092196;28;20063;-69
2022/03/24 00:30:26;;;;;;;23.73;12.80;;;;;;;7.19;71.88;101190.78;5092740;28;20077;-66
2022/03/24 00:32:52;;;;;;;25.05;12.52;;;;;;;7.15;72.70;101177.59;5095380;28;20028;-66
2022/03/24 00:35:17;;;;;;;28.25;13.60;;;;;;;7.18;72.14;101186.38;5092614;28;20016;-68
2022/03/24 00:37:43;;;;;;;29.63;14.40;;;;;;;7.07;72.06;101174.91;5092381;28;20059;-68
2022/03/24 00:40:09;;;;;;;22.15;12.55;;;;;;;7.10;71.23;101196.06;5091189;28;20024;-68
2022/03/24 00:42:36;;;;;;;21.58;12.70;;;;;;;7.13;70.66;101196.09;5092401;28;20028;-68
2022/03/24 00:45:04;;;;;;;21.17;11.80;;;;;;;7.11;70.34;101189.03;5092700;28;20939;-67
2022/03/24 00:47:29;;;;;;;22.60;12.75;;;;;;;6.93;70.29;101186.38;5092563;28;20059;-67
2022/03/24 00:49:55;;;;;;;23.00;11.25;;;;;;;6.89;70.87;101184.59;5092233;28;20097;-68
2022/03/24 00:52:20;;;;;;;24.55;11.80;;;;;;;6.82;70.49;101191.66;5074020;28;20080;-68
2022/03/24 00:54:46;;;;;;;22.10;12.25;;;;;;;6.71;71.75;101180.19;5092279;28;20496;-68
2022/03/24 00:57:11;;;;;;;21.63;11.57;;;;;;;6.64;72.66;101188.97;5091415;28;20038;-68
2022/03/24 00:59:37;;;;;;;22.77;11.80;;;;;;;6.54;72.65;101190.72;5092968;28;20530;-68
2022/03/24 01:02:03;;;;;;;22.55;11.57;;;;;;;6.52;72.77;101191.63;5092548;28;20039;-67
2022/03/24 01:04:28;;;;;;;23.00;11.15;;;;;;;6.41;73.53;101188.03;5098333;28;20432;-68
2022/03/24 01:06:53;;;;;;;23.65;10.93;;;;;;;6.42;74.39;101188.06;5109630;28;20023;-69
2022/03/24 01:09:19;;;;;;;22.45;11.32;;;;;;;6.38;74.36;101159.84;5112409;28;20028;-69
2022/03/24 01:11:44;;;;;;;19.27;11.85;;;;;;;6.56;73.10;101167.81;5093631;28;20023;-68
2022/03/24 01:14:10;;;;;;;21.73;11.80;;;;;;;6.52;73.64;101183.69;5091161;28;20032;-68
2022/03/24 01:16:36;;;;;;;20.38;11.05;;;;;;;6.39;74.23;101189.81;5095074;28;20024;-68
2022/03/24 01:19:01;;;;;;;20.48;10.55;;;;;;;6.43;74.33;101186.28;5092482;28;20220;-68
2022/03/24 01:21:27;;;;;;;19.83;10.80;;;;;;;6.34;74.48;101189.78;5111957;28;20044;-68
2022/03/24 01:23:53;;;;;;;19.40;10.65;;;;;;;6.11;75.67;101164.19;5112337;28;20019;-68
2022/03/24 01:26:18;;;;;;;20.38;9.90;;;;;;;6.09;75.97;101176.50;5093630;28;20114;-68
2022/03/24 01:28:44;;;;;;;22.33;10.23;;;;;;;6.16;75.66;101184.44;5111689;28;20027;-68
2022/03/24 01:31:10;;;;;;;20.48;11.18;;;;;;;6.07;75.81;101167.69;5112345;28;20074;-67
2022/03/24 01:33:39;;;;;;;21.42;10.68;;;;;;;6.09;76.70;101187.94;5112135;28;20027;-68
2022/03/24 01:36:10;;;;;;;21.88;11.63;;;;;;;6.07;76.46;101180.88;5111484;28;20031;-68
2022/03/24 01:38:36;;;;;;;26.02;12.10;;;;;;;5.96;76.46;101169.41;5111802;28;20027;-68
2022/03/24 01:41:03;;;;;;;24.55;12.70;;;;;;;6.09;76.73;101182.66;5098380;28;20437;-68
2022/03/24 01:43:29;;;;;;;22.50;11.95;;;;;;;6.01;77.06;101151.81;5093666;28;20024;-68
2022/03/24 01:45:54;;;;;;;27.35;12.45;;;;;;;6.13;77.11;101183.53;5091373;28;20024;-68
2022/03/24 01:48:20;;;;;;;27.02;12.90;;;;;;;6.08;77.14;101169.47;5072798;28;20564;-68
2022/03/24 01:50:45;;;;;;;24.58;12.90;;;;;;;6.05;77.01;101158.84;5090975;28;20347;-68
2022/03/24 01:53:12;;;;;;;27.30;13.45;;;;;;;6.17;77.77;101174.75;5073220;28;20024;-68
2022/03/24 01:55:39;;;;;;;23.67;13.07;;;;;;;6.15;77.10;101176.50;5091265;28;20095;-68
2022/03/24 01:58:05;;;;;;;20.20;12.25;;;;;;;6.17;77.29;101172.13;5090802;28;20020;-68
2022/03/24 02:00:31;;;;;;;22.15;12.50;;;;;;;6.10;77.12;101178.25;5090394;28;20168;-68
2022/03/24 02:03:02;;;;;;;25.20;12.98;;;;;;;6.11;77.51;101178.25;5092469;28;20542;-68
2022/03/24 02:05:35;;;;;;;23.63;11.57;;;;;;;6.04;77.83;101180.88;5090272;28;20104;-68
2022/03/24 02:08:03;;;;;;;23.77;12.32;;;;;;;5.99;77.52;101179.97;5093576;28;20561;-68
2022/03/24 02:10:30;;;;;;;19.35;11.18;;;;;;;5.95;77.92;101183.47;5090623;28;20074;-68
2022/03/24 02:12:56;;;;;;;25.98;12.85;;;;;;;5.93;77.85;101178.19;5090172;28;20020;-68
2022/03/24 02:15:23;;;;;;;27.30;12.88;;;;;;;5.85;78.35;101181.69;5089593;28;20526;-68
2022/03/24 02:17:48;;;;;;;26.92;12.38;;;;;;;5.74;78.11;101172.75;5105475;28;20019;-68
2022/03/24 02:20:14;;;;;;;23.10;12.05;;;;;;;5.78;78.08;101171.91;5107316;28;20054;-68
2022/03/24 02:22:40;;;;;;;22.42;12.88;;;;;;;5.69;77.85;101169.22;5111146;28;20925;-68
2022/03/24 02:25:07;;;;;;;25.00;12.70;;;;;;;5.58;77.61;101153.34;5100797;28;20064;-68
2022/03/24 02:27:33;;;;;;;23.90;11.48;;;;;;;5.65;78.15;101180.66;5091406;28;20053;-68
2022/03/24 02:29:58;;;;;;;24.08;11.88;;;;;;;5.61;79.08;101160.38;5069575;28;20032;-68
2022/03/24 02:32:23;;;;;;;23.70;14.43;;;;;;;5.52;79.84;101153.28;5090548;28;20499;-68
2022/03/24 02:34:51;;;;;;;23.10;12.60;;;;;;;5.66;79.71;101166.56;5092835;28;20097;-68
2022/03/24 02:37:19;;;;;;;25.88;12.85;;;;;;;5.58;79.44;101160.38;5071977;28;20070;-68
2022/03/24 02:39:48;;;;;;;28.02;13.60;;;;;;;5.54;78.99;101166.50;5089322;28;20521;-68
2022/03/24 02:42:17;;;;;;;27.30;13.25;;;;;;;5.50;78.70;101162.09;5090246;28;20038;-68
2022/03/24 02:45:07;;;;;;;20.65;11.35;;;;;;;5.33;79.59;101157.59;5090067;28;20016;-68
2022/03/24 02:47:33;;;;;;;23.90;11.55;;;;;;;5.37;79.86;101162.00;5089720;28;20046;-68
2022/03/24 02:49:59;;;;;;;20.77;11.55;;;;;;;5.44;80.16;101156.78;5089773;28;20390;-68
2022/03/24 02:52:26;;;;;;;22.40;12.55;;;;;;;5.52;79.37;101155.94;5090052;28;20034;-68
2022/03/24 02:54:51;;;;;;;24.25;12.55;;;;;;;5.46;78.48;101155.00;5090112;28;20455;-68
2022/03/24 02:57:17;;;;;;;23.42;12.38;;;;;;;5.28;77.50;101156.69;5089298;28;20024;-68
2022/03/24 02:59:43;;;;;;;31.25;12.80;;;;;;;5.23;77.56;101168.06;5101764;28;20059;-67
2022/03/24 03:02:13;;;;;;;19.70;10.82;;;;;;;5.14;77.08;101166.22;5098165;28;20111;-68
2022/03/24 03:04:44;;;;;;;22.02;11.80;;;;;;;4.89;77.76;101158.13;5095936;28;20039;-68
2022/03/24 03:07:09;;;;;;;22.60;12.35;;;;;;;4.92;78.09;101172.22;5071239;28;20028;-68
2022/03/24 03:09:37;;;;;;;22.83;12.13;;;;;;;4.93;78.70;101178.34;5088544;28;20367;-68
2022/03/24 03:12:04;;;;;;;21.05;12.30;;;;;;;4.94;79.11;101170.44;5110074;28;20107;-68
2022/03/24 03:14:29;;;;;;;28.25;12.63;;;;;;;4.99;79.65;101184.56;5110128;28;20049;-68
2022/03/24 03:16:59;;;;;;;21.38;12.02;;;;;;;4.97;79.43;101185.44;5084679;28;20043;-68
2022/03/24 03:19:25;;;;;;;18.25;11.70;;;;;;;4.92;79.66;101182.75;5089284;28;20499;-68
2022/03/24 03:21:51;;;;;;;21.95;11.43;;;;;;;4.87;80.25;101184.47;5089642;28;20052;-68
2022/03/24 03:24:18;;;;;;;22.02;12.10;;;;;;;4.78;80.22;101171.19;5089454;28;20073;-68
2022/03/24 03:26:44;;;;;;;22.50;12.90;;;;;;;4.83;80.38;101189.69;5089443;28;20425;-67
2022/03/24 03:29:10;;;;;;;24.50;13.30;;;;;;;4.70;80.46;101178.16;5089354;28;20099;-68
2022/03/24 03:31:37;;;;;;;23.80;12.85;;;;;;;4.68;81.59;101185.16;5089476;28;20027;-68
2022/03/24 03:34:03;;;;;;;21.85;12.07;;;;;;;4.56;80.86;101166.63;5088323;28;20089;-68
2022/03/24 03:36:30;;;;;;;28.60;14.38;;;;;;;4.67;81.36;101186.03;5089206;28;20505;-68
2022/03/24 03:38:56;;;;;;;21.50;11.20;;;;;;;4.72;80.81;101188.72;5070544;28;20483;-68
2022/03/24 03:41:22;;;;;;;21.52;11.52;;;;;;;4.77;80.83;101194.91;5089161;28;20038;-67
2022/03/24 03:43:49;;;;;;;19.52;12.05;;;;;;;4.77;81.00;101182.63;5089501;28;20039;-67
2022/03/24 03:46:15;;;;;;;23.13;12.68;;;;;;;4.69;81.12;101173.78;5090316;28;20471;-68
2022/03/24 03:48:41;;;;;;;25.58;13.95;;;;;;;4.70;81.28;101195.72;5089440;28;20031;-68
2022/03/24 03:51:08;;;;;;;30.35;12.98;;;;;;;4.75;81.12;101194.91;5088849;28;20414;-68
2022/03/24 03:53:35;;;;;;;23.67;13.68;;;;;;;4.90;80.83;101195.03;5089252;28;20166;-68
2022/03/24 03:56:05;;;;;;;26.20;14.13;;;;;;;4.84;80.26;101178.28;5089249;28;20495;-68
2022/03/24 03:58:34;;;;;;;24.25;15.18;;;;;;;4.87;79.75;101196.75;5090977;28;20027;-68
2022/03/24 04:00:59;;;;;;;24.25;13.38;;;;;;;4.85;79.93;101196.75;5088329;28;20498;-68
2022/03/24 04:03:26;;;;;;;20.90;12.23;;;;;;;4.80;79.97;101195.81;5089235;28;20016;-68
2022/03/24 04:05:57;;;;;;;24.85;14.05;;;;;;;4.71;80.94;101195.72;5079051;28;20128;-68
2022/03/24 04:08:23;;;;;;;23.73;12.38;;;;;;;4.69;80.77;101186.94;5088868;28;20498;-68
2022/03/24 04:10:49;;;;;;;21.77;13.95;;;;;;;4.60;81.05;101189.47;5090053;28;20020;-68
2022/03/24 04:13:19;;;;;;;26.58;13.48;;;;;;;4.61;81.43;101196.50;5088977;28;20024;-67
2022/03/24 04:15:46;;;;;;;27.77;12.30;;;;;;;4.65;81.15;101192.13;5094438;28;20027;-68
2022/03/24 04:18:13;;;;;;;33.83;15.98;;;;;;;4.47;81.46;101171.78;5091213;28;20099;-68
2022/03/24 04:20:39;;;;;;;25.55;13.77;;;;;;;4.41;81.14;101182.25;5088467;28;20052;-68
2022/03/24 04:23:05;;;;;;;23.42;12.80;;;;;;;4.41;80.98;101191.91;5091400;28;20031;-68
2022/03/24 04:25:32;;;;;;;25.63;13.38;;;;;;;4.33;81.46;101194.47;5088736;28;20028;-67
2022/03/24 04:27:58;;;;;;;22.50;12.95;;;;;;;4.34;81.86;101185.69;5088881;28;20573;-67
2022/03/24 04:30:26;;;;;;;20.80;12.23;;;;;;;4.32;81.90;101191.78;5088447;28;20028;-68
2022/03/24 04:32:52;;;;;;;22.27;12.10;;;;;;;4.30;82.29;101186.50;5088961;28;20079;-67
2022/03/24 04:35:17;;;;;;;25.77;13.27;;;;;;;4.38;82.05;101192.78;5090764;28;20478;-68
2022/03/24 04:37:43;;;;;;;22.95;12.27;;;;;;;4.31;81.50;101196.19;5091056;28;20016;-68
2022/03/24 04:40:11;;;;;;;25.38;13.45;;;;;;;4.29;81.60;101195.28;5088786;28;20040;-67
2022/03/24 04:42:38;;;;;;;20.88;12.02;;;;;;;4.34;82.29;101184.78;5088809;28;20031;-67
2022/03/24 04:45:04;;;;;;;25.35;13.27;;;;;;;4.39;81.91;101194.53;5088826;28;20032;-67
2022/03/24 04:47:30;;;;;;;24.48;13.02;;;;;;;4.35;82.19;101192.69;5088519;28;20551;-68
2022/03/24 04:49:55;;;;;;;19.60;12.00;;;;;;;4.27;81.93;101194.38;5088367;28;20106;-68
2022/03/24 04:52:22;;;;;;;21.70;13.27;;;;;;;4.35;83.24;101192.69;5088671;28;20059;-68
2022/03/24 04:54:48;;;;;;;23.48;13.90;;;;;;;4.36;82.80;101202.41;5087271;28;20051;-67
2022/03/24 04:57:14;;;;;;;19.83;12.20;;;;;;;4.37;82.00;101206.78;5069021;28;20024;-67
2022/03/24 04:59:43;;;;;;;28.40;12.63;;;;;;;4.23;82.24;101208.38;5094444;28;20020;-67
2022/03/24 05:02:12;;;;;;;22.67;12.48;;;;;;;4.30;82.76;101212.84;5097153;28;20051;-67
2022/03/24 05:04:37;;;;;;;21.75;12.18;;;;;;;4.26;81.70;101213.69;5098663;28;20544;-67
2022/03/24 05:07:03;;;;;;;20.75;12.75;;;;;;;4.42;81.00;101215.63;5091577;28;20016;-67
2022/03/24 05:09:29;;;;;;;18.55;11.57;;;;;;;4.23;81.38;101213.66;5092160;28;20058;-67
2022/03/24 05:11:54;;;;;;;19.33;13.07;;;;;;;4.31;80.84;101227.78;5112231;28;20080;-67
2022/03/24 05:14:20;;;;;;;21.05;13.60;;;;;;;4.33;80.35;101225.19;5112585;28;20050;-67
2022/03/24 05:16:46;;;;;;;27.70;13.30;;;;;;;4.40;79.77;101232.28;5105989;28;20042;-67
2022/03/24 05:19:14;;;;;;;30.17;12.27;;;;;;;4.29;79.68;101237.41;5092248;28;20055;-66
2022/03/24 05:21:39;;;;;;;22.95;11.52;;;;;;;4.18;80.04;101230.25;5092161;28;20135;-67
2022/03/24 05:24:05;;;;;;;19.63;10.85;;;;;;;4.04;80.77;101224.81;5091833;28;20095;-67
2022/03/24 05:26:30;;;;;;;20.40;12.95;;;;;;;3.71;81.31;101212.09;5090215;28;20032;-67
2022/03/24 05:28:56;;;;;;;24.13;11.98;;;;;;;3.86;82.49;101232.47;5091419;28;20036;-67
2022/03/24 05:31:22;;;;;;;31.23;12.55;;;;;;;3.83;82.72;101217.53;5090133;28;20391;-67
2022/03/24 05:33:47;;;;;;;22.42;12.65;;;;;;;4.03;82.79;101236.22;5091785;28;20031;-67
2022/03/24 05:36:15;;;;;;;22.60;12.63;;;;;;;3.94;81.95;101218.53;5091221;28;20020;-67
2022/03/24 05:38:41;;;;;;;23.20;11.93;;;;;;;3.99;82.00;101239.66;5073022;28;20027;-67
2022/03/24 05:41:08;;;;;;;25.15;11.77;;;;;;;3.94;82.79;101246.59;5072940;28;20189;-67
2022/03/24 05:43:34;;;;;;;19.67;10.95;;;;;;;3.84;82.73;101231.53;5091701;28;20020;-67
2022/03/24 05:45:59;;;;;;;28.15;13.68;;;;;;;3.95;84.01;101248.38;5090977;28;20031;-67
2022/03/24 05:48:25;;;;;;;26.00;12.45;;;;;;;4.18;83.89;101236.41;5082831;28;20027;-67
2022/03/24 05:50:50;;;;;;;25.42;13.45;;;;;;;4.36;83.54;101247.16;5093069;28;20482;-67
2022/03/24 05:53:16;;;;;;;24.10;13.23;;;;;;;4.52;83.51;101243.84;5092856;28;20024;-67
2022/03/24 05:55:42;;;;;;;27.25;14.52;;;;;;;4.64;82.83;101249.25;5111445;28;20031;-66
2022/03/24 05:58:08;;;;;;;22.27;12.25;;;;;;;4.79;82.67;101244.16;5111349;28;20031;-67
2022/03/24 06:00:38;;;;;;;22.30;13.40;;;;;;;5.01;82.08;101250.47;5108863;28;20716;-67
2022/03/24 06:03:05;;;;;;;28.25;14.77;;;;;;;5.14;81.36;101252.38;5111770;28;20027;-66
2022/03/24 06:05:30;;;;;;;25.05;14.23;;;;;;;5.32;80.89;101261.31;5093805;28;20123;-66
2022/03/24 06:07:58;;;;;;;26.98;15.00;;;;;;;5.69;81.71;101240.47;5092787;28;20073;-67
2022/03/24 06:10:24;;;;;;;25.52;13.35;;;;;;;6.55;79.27;101257.69;5090475;28;20059;-67
2022/03/24 06:12:51;;;;;;;26.20;14.23;;;;;;;7.20;74.18;101260.47;5093325;28;20020;-67
2022/03/24 06:15:16;;;;;;;27.58;14.98;;;;;;;8.20;70.82;101258.59;5091865;28;20702;-67
2022/03/24 06:17:42;;;;;;;21.60;14.75;;;;;;;9.34;66.04;101256.19;5097681;28;20115;-67
2022/03/24 06:20:08;;;;;;;24.27;13.60;;;;;;;10.75;57.88;101252.03;5089370;28;20124;-67
2022/03/24 06:22:49;;;;;;;24.50;14.05;;;;;;;11.84;52.89;101236.09;5093082;28;20048;-66
2022/03/24 06:25:14;;;;;;;29.55;16.13;;;;;;;12.78;50.12;101243.94;5090615;28;20035;-67
2022/03/24 06:27:41;;;;;;;27.92;14.63;;;;;;;13.42;48.15;101229.09;5090851;28;20192;-66
2022/03/24 06:30:07;;;;;;;25.40;12.73;;;;;;;13.70;45.92;101256.91;5090267;28;20841;-66
2022/03/24 06:32:33;;;;;;;23.48;12.75;;;;;;;14.30;44.99;101245.47;5090684;28;20027;-67
2022/03/24 06:34:58;;;;;;;16.95;11.02;;;;;;;14.71;43.56;101252.28;5090212;28;20029;-67
2022/03/24 06:37:24;;;;;;;26.60;12.30;;;;;;;15.07;42.68;101251.19;5090453;28;20096;-67
2022/03/24 06:39:49;;;;;;;21.30;12.48;;;;;;;15.19;42.24;101256.16;5092775;28;20020;-66
2022/03/24 06:42:15;;;;;;;19.92;11.65;;;;;;;15.60;41.77;101252.19;5095241;28;20429;-66
2022/03/24 06:44:41;;;;;;;24.50;13.93;;;;;;;16.07;40.23;101254.09;5110795;28;20019;-67
2022/03/24 06:47:06;;;;;;;31.08;12.98;;;;;;;16.40;39.75;101249.31;5109674;28;20026;-67
2022/03/24 06:49:32;;;;;;;23.80;14.93;;;;;;;17.03;38.60;101239.69;5109651;28;20031;-67
2022/03/24 06:51:57;;;;;;;22.88;13.48;;;;;;;17.53;37.82;101248.44;5110342;28;20027;-66
2022/03/24 06:54:23;;;;;;;21.83;12.85;;;;;;;18.12;36.95;101245.91;5110151;28;20461;-67
2022/03/24 06:56:49;;;;;;;22.40;12.55;;;;;;;18.61;36.55;101247.31;5106386;28;20403;-65
2022/03/24 06:59:15;;;;;;;23.25;14.75;;;;;;;18.76;35.97;101243.91;5110239;28;20024;-67
2022/03/24 07:01:42;;;;;;;24.45;14.93;;;;;;;18.83;36.03;101248.06;5110423;28;20031;-67
2022/03/24 07:04:08;;;;;;;25.60;14.18;;;;;;;19.15;35.46;101242.00;5105825;28;20024;-66
2022/03/24 07:06:33;;;;;;;26.17;14.57;;;;;;;19.31;35.12;101243.03;5092153;28;20552;-67
2022/03/24 07:08:59;;;;;;;25.30;14.07;;;;;;;19.17;34.68;101246.41;5089622;28;20019;-67
2022/03/24 07:11:24;;;;;;;44.55;24.27;;;;;;;19.31;35.36;101253.81;5089916;28;20081;-66
2022/03/24 07:13:50;;;;;;;53.85;44.08;;;;;;;19.70;35.19;101245.59;5089797;28;20024;-65
2022/03/24 07:16:15;;;;;;;27.02;18.02;;;;;;;19.25;35.05;101237.91;5100284;28;20615;-67
2022/03/24 07:18:40;;;;;;;26.05;14.32;;;;;;;19.97;34.05;101261.25;5092772;28;20027;-67
2022/03/24 07:21:06;;;;;;;99.20;68.72;;;;;;;20.08;34.07;101250.75;5104032;28;20059;-67
2022/03/24 07:23:32;;;;;;;33.58;19.08;;;;;;;20.06;34.29;101254.50;5106613;28;20055;-67
2022/03/24 07:25:58;;;;;;;45.65;33.83;;;;;;;19.97;34.81;101255.84;5108451;28;20028;-67
2022/03/24 07:28:23;;;;;;;39.80;23.35;;;;;;;20.41;34.48;101261.69;5109524;28;20049;-67
2022/03/24 07:30:50;;;;;;;23.98;15.80;;;;;;;20.61;33.98;101247.94;5106288;28;20499;-67
2022/03/24 07:33:18;;;;;;;23.92;14.02;;;;;;;20.43;34.60;101247.13;5088405;28;20043;-67
2022/03/24 07:35:43;;;;;;;30.05;19.95;;;;;;;20.80;34.16;101252.28;5088112;28;20027;-67
2022/03/24 07:38:09;;;;;;;23.65;14.65;;;;;;;20.44;33.83;101254.28;5089515;28;20066;-67
2022/03/24 07:40:35;;;;;;;24.25;13.95;;;;;;;20.36;34.90;101253.78;5087694;28;20054;-67
2022/03/24 07:43:00;;;;;;;27.60;16.83;;;;;;;20.22;35.40;101252.78;5088649;28;20041;-67
2022/03/24 07:45:26;;;;;;;27.38;13.00;;;;;;;20.33;35.41;101253.13;5091333;28;20467;-67
2022/03/24 07:48:11;;;;;;;32.28;13.77;;;;;;;20.63;35.01;101252.34;5098191;28;20036;-67
2022/03/24 07:50:38;;;;;;;22.80;14.05;;;;;;;20.19;34.67;101252.94;5091267;28;20040;-67
2022/03/24 07:53:23;;;;;;;27.00;14.68;;;;;;;20.20;35.60;101247.47;5088449;28;20584;-67
2022/03/24 07:55:48;;;;;;;31.00;16.80;;;;;;;19.86;35.42;101247.44;5088760;28;20020;-68
2022/03/24 07:58:17;;;;;;;28.08;13.73;;;;;;;19.81;35.42;101249.50;5089055;28;20498;-68
2022/03/24 08:00:43;;;;;;;24.27;14.38;;;;;;;19.67;35.07;101244.78;5088328;28;20034;-67
2022/03/24 08:03:20;;;;;;;21.98;13.10;;;;;;;19.30;35.86;101257.50;5088004;28;20077;-67
2022/03/24 08:05:47;;;;;;;24.20;14.48;;;;;;;19.43;35.62;101254.13;5089396;28;20103;-67
2022/03/24 08:08:14;;;;;;;25.27;13.10;;;;;;;19.39;35.38;101251.63;5089625;28;20490;-67
2022/03/24 08:10:45;;;;;;;29.40;13.63;;;;;;;19.61;35.17;101257.72;5094081;28;20028;-68
2022/03/24 08:13:13;;;;;;;29.45;13.88;;;;;;;19.74;36.63;101248.06;5090875;28;20024;-68
2022/03/24 08:15:39;;;;;;;24.23;14.95;;;;;;;19.82;35.39;101242.28;5088083;28;20134;-68
2022/03/24 08:18:06;;;;;;;24.30;14.07;;;;;;;20.09;35.17;101252.53;5089017;28;20032;-67
2022/03/24 08:20:32;;;;;;;24.17;13.20;;;;;;;19.93;35.05;101251.59;5070969;28;20047;-67
2022/03/24 08:22:58;;;;;;;21.83;13.70;;;;;;;19.75;35.72;101252.53;5088457;28;20051;-67
2022/03/24 08:25:23;;;;;;;22.48;12.70;;;;;;;19.48;35.36;101253.88;5087977;28;20535;-67
2022/03/24 08:27:49;;;;;;;27.13;14.57;;;;;;;19.50;35.78;101262.78;5088735;28;20024;-67
2022/03/24 08:30:15;;;;;;;26.85;13.70;;;;;;;19.55;35.92;101261.59;5088823;28;20020;-67
2022/03/24 08:32:41;;;;;;;20.20;13.45;;;;;;;19.69;36.77;101263.59;5089592;28;20425;-67
2022/03/24 08:35:07;;;;;;;30.17;15.90;;;;;;;20.01;35.72;101261.97;5087954;28;20032;-67
2022/03/24 08:37:33;;;;;;;22.23;13.85;;;;;;;20.22;35.37;101256.38;5090141;28;20043;-67
2022/03/24 08:39:58;;;;;;;24.08;13.65;;;;;;;20.29;35.28;101257.81;5092096;28;20028;-67
2022/03/24 08:42:24;;;;;;;26.83;14.93;;;;;;;20.55;35.21;101262.69;5106151;28;20157;-67
2022/03/24 08:44:49;;;;;;;23.50;13.30;;;;;;;20.60;34.97;101260.63;5094390;28;20056;-67
2022/03/24 08:47:15;;;;;;;22.98;12.98;;;;;;;20.77;35.61;101260.56;5092720;28;20062;-67
2022/03/24 08:49:41;;;;;;;23.00;13.60;;;;;;;21.08;34.83;101253.47;5097153;28;20703;-67
2022/03/24 08:52:07;;;;;;;23.80;12.85;;;;;;;21.05;34.96;101262.66;5113351;28;20023;-67
2022/03/24 08:54:33;;;;;;;24.38;14.25;;;;;;;21.05;34.86;101259.97;5112361;28;20027;-68
2022/03/24 08:56:58;;;;;;;25.27;14.25;;;;;;;21.29;34.74;101257.69;5112809;28;20482;-68
2022/03/24 08:59:24;;;;;;;23.95;13.20;;;;;;;21.35;34.42;101257.34;5112880;28;20034;-68
2022/03/24 09:01:49;;;;;;;35.78;14.63;;;;;;;21.74;33.99;101255.03;5113453;28;20068;-68
2022/03/24 09:04:15;;;;;;;26.33;13.45;;;;;;;;;;5112934;28;20103;-68
2022/03/24 09:06:41;;;;;;;20.92;12.57;;;;;;;21.73;31.18;101264.13;5093073;28;20078;-68
2022/03/24 09:09:06;;;;;;;22.33;13.32;;;;;;;21.33;32.46;101259.25;5111895;28;20489;-68
2022/03/24 09:11:32;;;;;;;21.50;12.32;;;;;;;21.66;32.72;101268.16;5094907;28;20024;-68
2022/03/24 09:13:58;;;;;;;23.33;12.35;;;;;;;22.11;31.33;101260.03;5091596;28;20020;-68
2022/03/24 09:16:23;;;;;;;22.80;13.50;;;;;;;22.42;32.01;101257.19;5097126;28;20445;-68
2022/03/24 09:18:49;;;;;;;25.58;13.60;;;;;;;22.59;30.59;101267.03;5113556;28;20058;-68
2022/03/24 09:21:16;;;;;;;22.60;12.95;;;;;;;22.61;31.91;101260.56;5112103;28;20488;-68
2022/03/24 09:23:42;;;;;;;23.52;13.13;;;;;;;22.66;31.75;101258.41;5113661;28;20031;-67
2022/03/24 09:26:08;;;;;;;21.23;12.18;;;;;;;22.79;30.68;101264.81;5113382;28;20032;-67
2022/03/24 09:28:33;;;;;;;22.95;12.85;;;;;;;22.85;32.14;101264.41;5113239;28;20147;-67
2022/03/24 09:30:59;;;;;;;22.65;13.13;;;;;;;23.10;31.03;101263.72;5112031;28;20024;-67
2022/03/24 09:33:24;;;;;;;29.23;12.93;;;;;;;23.19;30.38;101264.03;5113258;28;20015;-67
2022/03/24 09:35:50;;;;;;;23.08;12.15;;;;;;;22.29;30.30;101264.31;5092494;28;20093;-67
2022/03/24 09:38:17;;;;;;;26.52;13.57;;;;;;;22.46;31.08;101266.88;5112340;28;20077;-67
2022/03/24 09:40:43;;;;;;;26.42;13.10;;;;;;;23.00;31.52;101260.75;5102567;28;20024;-67
2022/03/24 09:43:09;;;;;;;23.05;12.18;;;;;;;23.21;30.83;101262.06;5092820;28;20051;-67
2022/03/24 09:45:34;;;;;;;22.70;12.40;;;;;;;23.21;30.59;101256.63;5092348;28;20434;-67
2022/03/24 09:48:00;;;;;;;21.15;12.73;;;;;;;23.53;30.96;101261.81;5093755;28;20100;-67
2022/03/24 09:50:27;;;;;;;23.65;12.48;;;;;;;23.72;30.58;101251.50;5090999;28;20505;-67
2022/03/24 09:52:52;;;;;;;24.80;12.70;;;;;;;23.66;30.51;101250.03;5092147;28;20365;-67
2022/03/24 09:55:19;;;;;;;24.38;13.38;;;;;;;23.89;30.49;101245.75;5091998;28;20122;-67
2022/03/24 09:57:48;;;;;;;24.70;13.25;;;;;;;23.94;29.35;101251.75;5091474;28;20086;-67
2022/03/24 10:00:16;;;;;;;22.05;12.63;;;;;;;24.16;29.44;101252.06;5089621;28;20483;-67
2022/03/24 10:02:41;;;;;;;20.27;11.85;;;;;;;24.22;28.47;101246.19;5091955;28;20511;-67
2022/03/24 10:05:08;;;;;;;21.38;12.52;;;;;;;24.65;28.99;101248.53;5091865;28;20130;-67
2022/03/24 10:07:48;;;;;;;26.85;13.50;;;;;;;24.64;27.50;101248.66;5094917;28;20482;-67
2022/03/24 10:10:27;;;;;;;22.42;13.00;;;;;;;24.69;28.28;101241.06;5091488;28;20111;-67
2022/03/24 10:12:53;;;;;;;21.25;11.70;;;;;;;24.82;28.59;101247.38;5094364;28;20024;-67
2022/03/24 10:15:18;;;;;;;23.80;12.10;;;;;;;24.67;27.91;101248.41;5091972;28;20047;-67
2022/03/24 10:17:52;;;;;;;24.15;11.88;;;;;;;25.01;28.51;101250.47;5104904;28;20529;-67
2022/03/24 10:20:19;;;;;;;24.65;12.18;;;;;;;25.16;27.33;101241.19;4635225;28;21954;-67
2022/03/24 10:22:53;;;;;;;20.92;11.35;;;;;;;25.50;26.51;101245.06;5094346;28;20096;-67
2022/03/24 10:25:24;;;;;;;24.17;12.73;;;;;;;25.34;27.60;101239.84;5091775;28;20028;-67
2022/03/24 10:28:04;;;;;;;22.92;12.73;;;;;;;25.26;27.67;101234.09;5091916;28;20054;-67
2022/03/24 10:30:54;;;;;;;26.00;12.90;;;;;;;25.52;27.47;101241.22;5090861;28;20434;-68
2022/03/24 10:33:37;;;;;;;21.15;11.65;;;;;;;25.90;26.45;101236.47;5090951;28;20035;-68
2022/03/24 10:36:19;;;;;;;26.90;12.18;;;;;;;26.17;25.36;101222.59;5091530;28;20036;-68
2022/03/24 10:38:50;;;;;;;22.95;12.05;;;;;;;26.37;27.29;101231.94;5091401;28;20028;-68
2022/03/24 10:41:27;;;;;;;23.23;13.30;;;;;;;26.56;26.15;101227.63;5093069;28;20066;-69
2022/03/24 10:43:54;;;;;;;20.05;11.35;;;;;;;26.30;26.65;101226.09;5090801;28;20020;-69
2022/03/24 10:46:24;;;;;;;20.73;12.18;;;;;;;26.33;26.38;101220.38;5090300;28;20649;-68
2022/03/24 10:48:51;;;;;;;22.90;12.18;;;;;;;26.51;26.45;101223.50;5093713;28;20416;-69
2022/03/24 10:51:31;;;;;;;29.13;14.48;;;;;;;26.53;25.73;101222.41;5091802;28;20020;-68
2022/03/24 10:54:33;;;;;;;26.55;13.27;;;;;;;26.81;26.10;101221.09;5093949;28;20028;-68
2022/03/24 10:57:06;;;;;;;21.83;12.38;;;;;;;26.56;27.75;101210.38;5089978;28;20032;-68
2022/03/24 10:59:54;;;;;;;23.42;12.35;;;;;;;26.63;25.66;101187.06;5090489;28;20064;-68
2022/03/24 11:02:21;;;;;;;21.23;11.85;;;;;;;26.99;26.39;101206.81;5091203;28;20036;-68
2022/03/24 11:04:47;;;;;;;22.73;11.88;;;;;;;27.34;27.13;101214.88;5090138;28;20026;-68
2022/03/24 11:07:12;;;;;;;23.27;13.07;;;;;;;27.28;25.42;101209.06;5090346;28;20098;-69
2022/03/24 11:09:38;;;;;;;24.05;12.98;;;;;;;27.73;25.10;101211.53;5090888;28;20479;-69
2022/03/24 11:12:30;;;;;;;23.40;12.98;;;;;;;28.04;25.47;101204.34;5090930;28;20024;-69
2022/03/24 11:15:01;;;;;;;21.70;11.23;;;;;;;27.63;26.27;101201.50;5091239;28;20024;-69